Time;durP1;ratioP1;P1;durP2;ratioP2;P2;SDS_P1;SDS_P2;PMS_P1;PMS_P2;Temp;Humidity;BMP_temperature;BMP_pressure;BME280_temperature;BME280_humidity;BME280_pressure;Samples;Min_cycle;Max_cycle;Signal;HPM_P1;HPM_P2
2023/07/14 00:02:04;;;;;;;12.00;9.48;;;;;;;28.83;62.03;101044.47;5063670;28;20049;-59
2023/07/14 00:04:33;;;;;;;9.90;8.90;;;;;;;28.83;61.76;101047.22;5068142;28;20373;-58
2023/07/14 00:07:03;;;;;;;10.13;9.13;;;;;;;28.83;62.11;101040.91;5057150;28;20060;-58
2023/07/14 00:09:32;;;;;;;11.05;9.27;;;;;;;28.84;61.75;101037.16;5066167;28;20041;-57
2023/07/14 00:12:00;;;;;;;10.68;9.07;;;;;;;28.85;61.80;101032.56;5065106;28;20412;-58
2023/07/14 00:14:28;;;;;;;10.88;9.70;;;;;;;28.85;61.95;101033.41;5059626;28;20044;-58
2023/07/14 00:16:56;;;;;;;10.32;9.35;;;;;;;28.85;62.05;101044.31;5070019;28;20051;-58
2023/07/14 00:19:25;;;;;;;10.77;8.65;;;;;;;28.84;61.92;101042.59;5061045;28;20049;-57
2023/07/14 00:21:53;;;;;;;10.05;9.15;;;;;;;28.85;61.95;101043.47;5062080;28;20045;-58
2023/07/14 00:24:21;;;;;;;10.65;9.52;;;;;;;28.85;62.10;101040.75;5069140;28;20051;-57
2023/07/14 00:26:55;;;;;;;9.98;8.85;;;;;;;28.85;61.89;101055.22;5058247;28;20079;-57
2023/07/14 00:29:35;;;;;;;11.93;9.98;;;;;;;28.86;61.88;101051.44;5064933;28;20057;-58
2023/07/14 00:32:12;;;;;;;11.63;10.07;;;;;;;28.86;61.77;101047.88;5067464;28;20511;-58
2023/07/14 00:34:40;;;;;;;10.38;9.48;;;;;;;28.86;61.89;101053.34;5069585;28;20045;-58
2023/07/14 00:37:08;;;;;;;11.35;8.80;;;;;;;28.86;61.92;101050.59;5061539;28;20047;-57
2023/07/14 00:39:35;;;;;;;9.88;8.88;;;;;;;28.87;61.67;101052.28;5062170;28;20048;-58
2023/07/14 00:42:07;;;;;;;9.63;8.63;;;;;;;28.86;61.85;101046.00;5069027;28;20059;-57
2023/07/14 00:44:35;;;;;;;9.75;8.75;;;;;;;28.87;61.66;101046.84;5057972;28;20380;-57
2023/07/14 00:47:19;;;;;;;9.88;8.98;;;;;;;28.87;61.62;101046.84;5069895;28;20053;-59
2023/07/14 00:49:49;;;;;;;9.68;8.80;;;;;;;28.87;61.60;101052.28;5070119;28;20056;-58
2023/07/14 00:52:27;;;;;;;10.00;8.90;;;;;;;28.86;61.58;101050.59;5070116;28;20791;-58
2023/07/14 00:54:54;;;;;;;9.73;8.82;;;;;;;28.87;61.76;101052.28;5064167;28;20048;-58
2023/07/14 00:57:25;;;;;;;9.35;8.55;;;;;;;28.86;61.79;101045.16;5066031;28;20424;-58
2023/07/14 00:59:58;;;;;;;9.32;8.43;;;;;;;28.87;61.88;101041.38;5059635;28;20052;-58
2023/07/14 01:02:25;;;;;;;9.40;8.43;;;;;;;28.86;61.83;101045.16;5060338;28;20053;-58
2023/07/14 01:05:06;;;;;;;9.05;8.15;;;;;;;28.86;61.93;101045.16;5058714;28;20041;-58
2023/07/14 01:07:39;;;;;;;8.82;7.97;;;;;;;28.86;61.69;101047.88;5072708;28;20048;-59
2023/07/14 01:10:09;;;;;;;8.65;7.75;;;;;;;28.87;61.44;101044.94;5062036;28;20053;-58
2023/07/14 01:12:42;;;;;;;9.00;8.10;;;;;;;28.87;61.53;101036.78;5067875;28;20045;-59
2023/07/14 01:15:09;;;;;;;9.75;8.77;;;;;;;28.87;61.81;101047.69;5070451;28;20056;-58
2023/07/14 01:17:37;;;;;;;9.80;8.80;;;;;;;28.87;61.60;101053.13;5061608;28;20044;-58
2023/07/14 01:20:09;;;;;;;9.65;8.80;;;;;;;28.87;61.98;101052.28;5072463;28;20508;-58
2023/07/14 01:23:21;;;;;;;8.93;8.00;;;;;;;28.86;61.76;101056.06;5067587;28;20052;-57
2023/07/14 01:26:29;;;;;;;9.93;8.23;;;;;;;28.86;61.60;101058.78;5061166;28;20048;-58
2023/07/14 01:28:56;;;;;;;12.02;9.27;;;;;;;28.85;61.40;101060.66;5061900;28;20048;-57
2023/07/14 01:31:24;;;;;;;8.55;7.75;;;;;;;28.86;61.39;101065.06;5073778;28;20052;-58
2023/07/14 01:33:53;;;;;;;10.23;7.57;;;;;;;28.86;61.81;101061.50;5060969;28;20416;-58
2023/07/14 01:36:24;;;;;;;9.32;7.90;;;;;;;28.87;61.34;101069.47;5067291;28;20408;-58
2023/07/14 01:38:53;;;;;;;9.10;8.18;;;;;;;28.85;61.44;101066.13;5069085;28;20049;-57
2023/07/14 01:41:21;;;;;;;9.40;8.38;;;;;;;28.87;61.88;101065.91;5059549;28;20404;-58
2023/07/14 01:43:53;;;;;;;8.82;7.93;;;;;;;28.87;61.52;101060.47;5069895;28;20056;-58
2023/07/14 01:46:22;;;;;;;9.18;8.23;;;;;;;28.88;61.42;101070.31;5066596;28;20052;-58
2023/07/14 01:48:58;;;;;;;10.45;8.18;;;;;;;28.87;61.55;101071.38;5071181;28;20053;-58
2023/07/14 01:51:31;;;;;;;8.48;6.88;;;;;;;28.87;61.35;101072.19;5072398;28;20049;-58
2023/07/14 01:54:09;;;;;;;9.88;8.15;;;;;;;28.88;61.34;101073.03;5065247;28;20044;-58
2023/07/14 01:56:40;;;;;;;8.77;7.88;;;;;;;28.87;61.26;101066.75;5062442;28;20049;-58
2023/07/14 01:59:17;;;;;;;7.93;6.90;;;;;;;28.87;61.49;101064.03;5070745;28;20052;-57
2023/07/14 02:01:46;;;;;;;10.05;7.47;;;;;;;28.89;61.59;101066.59;5067444;28;20053;-57
2023/07/14 02:04:21;;;;;;;7.47;6.78;;;;;;;28.86;61.52;101066.97;5067219;28;20056;-57
2023/07/14 02:06:49;;;;;;;8.27;7.47;;;;;;;28.87;61.81;101071.38;5060336;28;20048;-58
2023/07/14 02:09:21;;;;;;;8.57;6.82;;;;;;;28.87;61.67;101074.09;5069222;28;20523;-57
2023/07/14 02:11:55;;;;;;;9.18;7.18;;;;;;;28.87;61.41;101080.38;5064168;28;20056;-57
2023/07/14 02:14:24;;;;;;;9.35;7.18;;;;;;;28.87;61.59;101074.09;5062307;28;20067;-57
2023/07/14 02:16:57;;;;;;;8.40;7.55;;;;;;;28.87;61.53;101080.38;5070392;28;20056;-58
2023/07/14 02:19:26;;;;;;;8.02;7.25;;;;;;;28.88;61.55;101076.63;5071949;28;20491;-58
2023/07/14 02:21:56;;;;;;;7.25;6.55;;;;;;;28.87;61.50;101074.94;5072014;28;20060;-58
2023/07/14 02:24:27;;;;;;;6.90;6.20;;;;;;;28.87;61.53;101072.19;5059499;28;20059;-58
2023/07/14 02:26:59;;;;;;;8.45;6.80;;;;;;;28.87;61.41;101068.63;5061696;28;20040;-58
2023/07/14 02:29:27;;;;;;;8.38;6.75;;;;;;;28.88;61.52;101073.03;5065380;28;20045;-58
2023/07/14 02:32:08;;;;;;;8.63;6.38;;;;;;;28.88;61.39;101075.78;5071459;28;20074;-57
2023/07/14 02:34:43;;;;;;;7.50;6.70;;;;;;;28.88;61.79;101078.50;5071214;28;20052;-58
2023/07/14 02:38:04;;;;;;;9.80;6.53;;;;;;;28.87;61.62;101076.81;5072052;28;20515;-58
2023/07/14 02:41:01;;;;;;;7.28;6.53;;;;;;;28.87;61.33;101082.25;5059413;28;20064;-58
2023/07/14 02:43:29;;;;;;;8.00;6.57;;;;;;;28.87;61.49;101088.56;5063063;28;20491;-58
2023/07/14 02:46:06;;;;;;;7.78;7.07;;;;;;;28.86;61.14;101095.06;5070236;28;20052;-58
2023/07/14 02:48:39;;;;;;;7.68;6.18;;;;;;;28.88;61.28;101090.25;5057441;28;20049;-65
2023/07/14 02:51:07;;;;;;;7.43;6.30;;;;;;;28.87;61.41;101090.44;5065089;28;20045;-65
2023/07/14 02:53:35;;;;;;;6.75;5.18;;;;;;;28.85;61.37;101090.63;5059837;28;20440;-64
2023/07/14 02:56:03;;;;;;;6.43;5.72;;;;;;;28.83;61.53;101093.53;5070290;28;20048;-62
2023/07/14 02:58:32;;;;;;;6.15;5.32;;;;;;;28.84;61.26;101099.81;5069473;28;20053;-65
2023/07/14 03:01:00;;;;;;;6.18;5.57;;;;;;;28.83;61.27;101103.59;5063629;28;20060;-65
2023/07/14 03:03:28;;;;;;;7.50;6.20;;;;;;;28.82;61.20;101107.34;5061262;28;20049;-66
2023/07/14 03:05:56;;;;;;;8.35;6.55;;;;;;;28.81;60.96;101103.78;5069705;28;20052;-65
2023/07/14 03:08:23;;;;;;;6.22;5.13;;;;;;;28.81;61.05;101103.78;5061303;28;20053;-57
2023/07/14 03:10:56;;;;;;;8.82;5.13;;;;;;;28.80;61.04;101106.69;5064742;28;20075;-57
2023/07/14 03:13:23;;;;;;;7.20;5.65;;;;;;;28.79;61.31;101100.41;5068489;28;20071;-57
2023/07/14 03:15:51;;;;;;;7.28;5.95;;;;;;;28.80;60.96;101098.50;5059001;28;20052;-57
2023/07/14 03:18:19;;;;;;;8.40;5.47;;;;;;;28.79;61.39;101103.13;5067698;28;20405;-65
2023/07/14 03:20:46;;;;;;;5.90;4.72;;;;;;;28.79;61.22;101099.56;5065545;28;20323;-64
2023/07/14 03:23:14;;;;;;;6.35;5.20;;;;;;;28.78;61.31;101111.50;5068173;28;20515;-65
2023/07/14 03:25:41;;;;;;;5.57;4.97;;;;;;;28.76;61.09;101108.97;5058916;28;20485;-64
2023/07/14 03:28:09;;;;;;;7.03;5.55;;;;;;;28.77;60.97;101107.94;5067632;28;20056;-65
2023/07/14 03:30:40;;;;;;;5.53;4.93;;;;;;;28.77;60.88;101104.38;5065710;28;20044;-64
2023/07/14 03:33:07;;;;;;;5.68;5.05;;;;;;;28.75;61.16;101109.13;5069189;28;20056;-65
2023/07/14 03:35:35;;;;;;;7.57;5.82;;;;;;;28.75;60.84;101112.69;5058666;28;20071;-65
2023/07/14 03:38:02;;;;;;;7.00;4.97;;;;;;;28.74;60.66;101112.91;5067156;28;20045;-57
2023/07/14 03:40:30;;;;;;;6.38;5.65;;;;;;;28.73;60.75;101112.06;5065554;28;20048;-57
2023/07/14 03:42:57;;;;;;;7.78;5.13;;;;;;;28.71;61.20;101103.22;5058756;28;20052;-57
2023/07/14 03:45:25;;;;;;;6.57;5.15;;;;;;;28.70;61.31;101106.97;5069925;28;20044;-57
2023/07/14 03:47:53;;;;;;;5.55;4.70;;;;;;;28.71;61.10;101110.53;5060498;28;20063;-57
2023/07/14 03:50:20;;;;;;;5.13;4.57;;;;;;;28.70;60.86;101117.03;5059467;28;20049;-57
2023/07/14 03:52:47;;;;;;;6.30;4.68;;;;;;;28.70;60.97;101126.06;5068029;28;20052;-57
2023/07/14 03:55:15;;;;;;;5.85;5.10;;;;;;;28.71;61.37;101124.16;5057100;28;20060;-57
2023/07/14 03:57:43;;;;;;;5.93;4.82;;;;;;;28.71;61.11;101129.63;5070019;28;20060;-65
2023/07/14 04:00:27;;;;;;;7.65;5.28;;;;;;;28.71;61.17;101132.34;5059012;28;20056;-65
2023/07/14 04:02:56;;;;;;;5.75;4.97;;;;;;;28.71;61.37;101135.06;5056166;28;20053;-65
2023/07/14 04:05:24;;;;;;;6.82;5.72;;;;;;;28.71;61.37;101132.34;5068082;28;20060;-65
2023/07/14 04:07:52;;;;;;;5.80;4.45;;;;;;;28.71;60.97;101132.34;5062839;28;20044;-65
2023/07/14 04:10:19;;;;;;;8.25;5.20;;;;;;;28.70;60.76;101134.22;5059907;28;20412;-65
2023/07/14 04:12:48;;;;;;;6.20;5.15;;;;;;;28.70;60.63;101133.38;5069810;28;20044;-65
2023/07/14 04:15:16;;;;;;;6.65;4.82;;;;;;;28.69;60.78;101128.97;5059824;28;20053;-65
2023/07/14 04:17:43;;;;;;;5.95;4.70;;;;;;;28.70;60.61;101131.50;5063365;28;20477;-57
2023/07/14 04:20:11;;;;;;;6.90;5.30;;;;;;;28.70;60.50;101133.38;5066703;28;20075;-57
2023/07/14 04:22:39;;;;;;;7.15;4.65;;;;;;;28.71;60.61;101137.78;5057970;28;20051;-57
2023/07/14 04:25:07;;;;;;;7.68;4.72;;;;;;;28.71;60.80;101127.72;5067368;28;20049;-57
2023/07/14 04:27:36;;;;;;;5.43;4.32;;;;;;;28.71;60.42;101126.88;5064145;28;20052;-57
2023/07/14 04:30:04;;;;;;;6.45;5.22;;;;;;;28.71;60.40;101127.72;5059835;28;20055;-57
2023/07/14 04:32:32;;;;;;;6.35;4.30;;;;;;;28.71;60.65;101129.63;5069453;28;20049;-57
2023/07/14 04:34:59;;;;;;;4.88;4.35;;;;;;;28.69;60.36;101126.25;5060139;28;20055;-57
2023/07/14 04:37:26;;;;;;;5.00;4.30;;;;;;;28.70;60.21;101126.06;5062955;28;20519;-57
2023/07/14 04:39:54;;;;;;;6.65;4.60;;;;;;;28.70;60.21;101134.22;5068330;28;20052;-57
2023/07/14 04:42:21;;;;;;;5.57;4.47;;;;;;;28.69;60.65;101126.25;5070889;28;20040;-56
2023/07/14 04:44:49;;;;;;;5.60;4.60;;;;;;;28.70;60.16;101130.66;5060299;28;20507;-56
2023/07/14 04:47:16;;;;;;;5.78;4.80;;;;;;;28.69;60.59;101139.88;5062810;28;20404;-56
2023/07/14 04:49:43;;;;;;;6.00;4.72;;;;;;;28.68;60.62;101133.56;5067294;28;20048;-56
2023/07/14 04:52:11;;;;;;;6.50;4.50;;;;;;;28.68;60.89;101135.44;5057675;28;20054;-56
2023/07/14 04:54:38;;;;;;;6.18;4.63;;;;;;;28.67;60.53;101136.47;5066749;28;20481;-56
2023/07/14 04:57:06;;;;;;;5.65;4.35;;;;;;;28.67;60.61;101136.47;5064500;28;20045;-64
2023/07/14 04:59:34;;;;;;;7.85;5.18;;;;;;;28.67;60.39;101128.28;5059463;28;20049;-63
2023/07/14 05:02:04;;;;;;;7.38;5.03;;;;;;;28.66;60.80;101130.19;5068733;28;20041;-63
2023/07/14 05:04:33;;;;;;;5.47;4.60;;;;;;;28.67;60.97;101139.19;5060324;28;20098;-63
2023/07/14 05:07:00;;;;;;;5.60;4.13;;;;;;;28.67;60.99;101139.19;5062096;28;20048;-63
2023/07/14 05:09:28;;;;;;;5.72;4.32;;;;;;;28.68;60.89;101136.28;5068245;28;20385;-63
2023/07/14 05:11:55;;;;;;;5.93;4.45;;;;;;;28.67;61.18;101134.59;5057438;28;20053;-64
2023/07/14 05:14:26;;;;;;;7.13;4.80;;;;;;;28.68;61.01;101136.28;5066098;28;20049;-64
2023/07/14 05:16:53;;;;;;;5.88;4.57;;;;;;;28.69;61.15;101142.59;5065153;28;20048;-64
2023/07/14 05:19:20;;;;;;;6.57;5.03;;;;;;;28.69;60.65;101137.16;5058679;28;20060;-64
2023/07/14 05:21:48;;;;;;;5.63;4.82;;;;;;;28.69;61.16;101143.44;5069192;28;20053;-64
2023/07/14 05:24:15;;;;;;;6.60;4.35;;;;;;;28.69;60.88;101146.16;5060547;28;20044;-64
2023/07/14 05:26:43;;;;;;;7.00;3.38;;;;;;;28.70;60.76;101150.56;5061456;28;20041;-56
2023/07/14 05:29:10;;;;;;;5.60;3.90;;;;;;;28.70;60.84;101149.72;5068348;28;20048;-56
2023/07/14 05:31:38;;;;;;;5.13;3.78;;;;;;;28.70;60.79;101145.13;5057150;28;20037;-57
2023/07/14 05:34:05;;;;;;;6.07;4.93;;;;;;;28.71;61.14;101152.25;5065503;28;20056;-56
2023/07/14 05:36:32;;;;;;;4.90;3.83;;;;;;;28.70;61.08;101156.03;5064838;28;20052;-56
2023/07/14 05:39:00;;;;;;;5.65;4.20;;;;;;;28.69;60.42;101156.22;5058417;28;20049;-56
2023/07/14 05:41:27;;;;;;;6.15;4.28;;;;;;;28.69;60.25;101162.50;5068035;28;20416;-56
2023/07/14 05:43:55;;;;;;;5.75;4.25;;;;;;;28.68;60.33;101152.63;5064538;28;20052;-56
2023/07/14 05:46:22;;;;;;;4.80;4.15;;;;;;;28.69;60.49;101164.38;5064899;28;20055;-57
2023/07/14 05:48:53;;;;;;;5.57;4.10;;;;;;;28.69;60.54;101156.22;5061551;28;20049;-57
2023/07/14 05:51:21;;;;;;;6.38;4.25;;;;;;;28.69;60.50;101159.78;5071838;28;20381;-57
2023/07/14 05:53:48;;;;;;;7.40;4.80;;;;;;;28.68;60.48;101158.06;5064154;28;20053;-57
2023/07/14 05:56:15;;;;;;;4.32;3.70;;;;;;;28.69;60.61;101164.38;5064366;28;20530;-60
2023/07/14 05:58:43;;;;;;;7.07;4.38;;;;;;;28.67;60.43;101161.00;5071871;28;20051;-60
2023/07/14 06:01:10;;;;;;;4.78;3.80;;;;;;;28.66;60.62;101165.59;5060653;28;20048;-60
2023/07/14 06:03:37;;;;;;;5.22;3.85;;;;;;;28.66;60.13;101167.47;5068359;28;20045;-60
2023/07/14 06:06:05;;;;;;;4.68;4.07;;;;;;;28.64;60.20;101169.53;5067781;28;20048;-57
2023/07/14 06:08:34;;;;;;;7.15;4.00;;;;;;;28.62;60.47;101172.44;5061105;28;20052;-57
2023/07/14 06:11:03;;;;;;;5.22;3.80;;;;;;;28.62;60.16;101166.16;5074617;28;20385;-57
2023/07/14 06:13:30;;;;;;;5.55;3.83;;;;;;;28.61;60.24;101165.31;5064620;28;20045;-57
2023/07/14 06:15:58;;;;;;;4.93;3.55;;;;;;;28.62;60.31;101163.44;5068763;28;20045;-57
2023/07/14 06:18:25;;;;;;;7.22;3.83;;;;;;;28.61;60.38;101168.03;5060643;28;20041;-60
2023/07/14 06:20:53;;;;;;;6.32;3.45;;;;;;;28.60;60.57;101163.59;5071431;28;20049;-60
2023/07/14 06:23:21;;;;;;;6.10;3.75;;;;;;;28.61;60.17;101168.03;5063881;28;20048;-60
2023/07/14 06:25:48;;;;;;;4.47;3.42;;;;;;;28.61;60.71;101168.03;5063318;28;20048;-60
2023/07/14 06:28:16;;;;;;;7.00;3.60;;;;;;;28.59;60.37;101168.22;5071957;28;20049;-61
2023/07/14 06:30:43;;;;;;;4.97;3.88;;;;;;;28.60;60.82;101169.03;5060072;28;20488;-60
2023/07/14 06:33:12;;;;;;;5.32;3.38;;;;;;;28.58;60.47;101171.13;5067209;28;20060;-60
2023/07/14 06:35:40;;;;;;;5.80;3.10;;;;;;;28.57;60.34;101170.28;5067993;28;20040;-60
2023/07/14 06:38:08;;;;;;;5.95;4.30;;;;;;;28.52;60.58;101172.72;5060076;28;20045;-60
2023/07/14 06:40:35;;;;;;;6.63;3.50;;;;;;;28.46;60.32;101165.28;5056916;28;20292;-60
2023/07/14 06:43:04;;;;;;;5.50;3.90;;;;;;;28.40;60.48;101163.31;5063853;28;20051;-57
2023/07/14 06:45:32;;;;;;;6.80;3.67;;;;;;;28.36;60.32;101167.44;5062493;28;20496;-60
2023/07/14 06:47:59;;;;;;;8.95;4.10;;;;;;;28.32;60.65;101157.91;5071949;28;20044;-61
2023/07/14 06:50:26;;;;;;;8.27;3.85;;;;;;;28.31;60.67;101156.19;5056741;28;20060;-61
2023/07/14 06:52:54;;;;;;;4.85;3.20;;;;;;;28.30;60.51;101162.66;5063923;28;20044;-61
2023/07/14 06:55:22;;;;;;;5.25;3.20;;;;;;;28.29;60.37;101159.09;5062248;28;20059;-60
2023/07/14 06:57:49;;;;;;;6.00;3.05;;;;;;;28.31;60.56;101156.19;5070636;28;20076;-58
2023/07/14 07:00:17;;;;;;;6.55;4.20;;;;;;;28.26;60.77;101159.47;5057161;28;20045;-59
2023/07/14 07:02:44;;;;;;;6.35;4.05;;;;;;;28.16;60.52;101149.88;5064159;28;20045;-59
2023/07/14 07:05:12;;;;;;;7.85;4.60;;;;;;;28.05;60.85;101151.97;5062195;28;20049;-62
2023/07/14 07:07:39;;;;;;;6.85;4.63;;;;;;;27.99;61.50;101152.69;5071482;28;20048;-62
2023/07/14 07:10:07;;;;;;;5.32;3.88;;;;;;;27.98;61.32;101158.31;5055600;28;20040;-62
2023/07/14 07:12:35;;;;;;;5.68;3.47;;;;;;;28.00;61.26;101148.97;5056342;28;20515;-63
2023/07/14 07:15:02;;;;;;;6.45;3.72;;;;;;;28.02;61.32;101152.34;5067636;28;20404;-64
2023/07/14 07:17:30;;;;;;;5.25;3.53;;;;;;;28.02;61.68;101157.78;5069177;28;20057;-65
2023/07/14 07:19:57;;;;;;;4.25;2.88;;;;;;;28.03;61.33;101154.03;5058647;28;20382;-65
2023/07/14 07:22:25;;;;;;;4.75;3.00;;;;;;;28.02;61.59;101155.06;5066056;28;20112;-62
2023/07/14 07:24:52;;;;;;;4.85;3.70;;;;;;;28.01;61.46;101156.09;5067139;28;20044;-61
2023/07/14 07:27:20;;;;;;;6.70;4.47;;;;;;;27.94;61.48;101159.72;5068541;28;20052;-60
2023/07/14 07:29:47;;;;;;;5.43;3.10;;;;;;;27.90;61.84;101161.09;5057675;28;20049;-60
2023/07/14 07:32:15;;;;;;;4.72;3.47;;;;;;;27.92;61.55;101168.06;5064944;28;20056;-60
2023/07/14 07:34:42;;;;;;;4.20;2.90;;;;;;;27.97;61.49;101170.25;5066844;28;20051;-60
2023/07/14 07:37:12;;;;;;;5.32;3.47;;;;;;;27.98;61.73;101167.34;5058310;28;20051;-59
2023/07/14 07:39:40;;;;;;;5.90;3.35;;;;;;;27.99;61.75;101166.28;5056765;28;20043;-60
2023/07/14 07:42:07;;;;;;;4.95;3.13;;;;;;;28.02;61.68;101171.38;5063008;28;20048;-60
2023/07/14 07:44:36;;;;;;;4.93;3.55;;;;;;;28.05;61.82;101157.41;5060560;28;20531;-60
2023/07/14 07:47:04;;;;;;;4.72;3.45;;;;;;;28.09;61.48;101158.75;5070662;28;20051;-60
2023/07/14 07:49:31;;;;;;;6.50;3.78;;;;;;;28.13;61.31;101158.41;5059054;28;20054;-60
2023/07/14 07:51:58;;;;;;;4.88;2.40;;;;;;;28.15;61.31;101157.16;5064426;28;20071;-61
2023/07/14 07:54:26;;;;;;;4.97;3.30;;;;;;;28.19;61.24;101168.53;5067018;28;20055;-61
2023/07/14 07:56:53;;;;;;;4.22;2.83;;;;;;;28.22;61.60;101158.13;5056956;28;20044;-59
2023/07/14 07:59:20;;;;;;;5.35;3.13;;;;;;;28.24;61.20;101156.09;5068522;28;20049;-59
2023/07/14 08:01:48;;;;;;;4.55;2.67;;;;;;;28.26;61.32;101151.28;5063055;28;20504;-59
2023/07/14 08:04:16;;;;;;;4.43;2.67;;;;;;;28.29;60.88;101160.97;5060497;28;20045;-59
2023/07/14 08:06:44;;;;;;;5.75;3.33;;;;;;;28.30;60.86;101157.22;5056816;28;20045;-58
2023/07/14 08:09:12;;;;;;;5.13;3.35;;;;;;;28.34;61.21;101158.53;5067829;28;20045;-57
2023/07/14 08:11:40;;;;;;;5.40;3.00;;;;;;;28.35;60.78;101165.69;5063216;28;20053;-55
2023/07/14 08:14:18;;;;;;;4.88;3.35;;;;;;;28.39;60.65;101169.75;5060187;28;20045;-57
2023/07/14 08:16:46;;;;;;;4.00;2.80;;;;;;;28.40;60.66;101170.59;5057981;28;20076;-59
2023/07/14 08:19:13;;;;;;;4.93;2.92;;;;;;;28.41;60.84;101162.25;5070922;28;20044;-55
2023/07/14 08:21:41;;;;;;;3.92;3.05;;;;;;;28.44;61.01;101164.63;5062401;28;20049;-55
2023/07/14 08:24:09;;;;;;;4.32;3.20;;;;;;;28.47;60.64;101163.41;5068204;28;20040;-58
2023/07/14 08:26:37;;;;;;;5.03;3.22;;;;;;;28.47;60.54;101153.34;5057776;28;20515;-60
2023/07/14 08:29:05;;;;;;;4.65;2.75;;;;;;;28.49;60.42;101161.34;5068871;28;20045;-59
2023/07/14 08:31:32;;;;;;;5.90;3.20;;;;;;;28.51;60.29;101162.84;5061792;28;20049;-59
2023/07/14 08:34:00;;;;;;;4.20;3.08;;;;;;;28.52;60.24;101163.69;5067032;28;20056;-60
2023/07/14 08:36:28;;;;;;;4.35;3.00;;;;;;;28.52;60.12;101163.69;5068820;28;20142;-59
2023/07/14 08:38:55;;;;;;;5.05;2.97;;;;;;;28.51;60.47;101164.72;5060645;28;20048;-59
2023/07/14 08:41:33;;;;;;;4.57;2.60;;;;;;;28.52;59.95;101155.50;5070543;28;20412;-59
2023/07/14 08:44:22;;;;;;;4.57;2.75;;;;;;;28.52;59.99;101161.84;5069878;28;20044;-59
2023/07/14 08:47:06;;;;;;;4.20;2.90;;;;;;;28.54;60.30;101161.63;5053983;28;20053;-59
2023/07/14 08:49:46;;;;;;;4.47;2.40;;;;;;;28.56;59.95;101156.81;5059980;28;20047;-59
2023/07/14 08:52:23;;;;;;;3.72;2.55;;;;;;;28.55;60.41;101153.25;5068665;28;20056;-59
2023/07/14 08:55:15;;;;;;;4.82;2.60;;;;;;;28.55;60.47;101158.72;5062140;28;20048;-58
2023/07/14 08:57:46;;;;;;;5.50;2.50;;;;;;;28.56;60.39;101148.66;5057596;28;20052;-59
2023/07/14 09:00:22;;;;;;;5.32;2.80;;;;;;;28.57;60.11;101151.22;5072410;28;20411;-59
2023/07/14 09:02:55;;;;;;;4.53;2.97;;;;;;;28.58;60.28;101154.78;5062093;28;20048;-59
2023/07/14 09:05:28;;;;;;;5.72;3.10;;;;;;;28.60;60.35;101155.44;5067511;28;20072;-59
2023/07/14 09:07:55;;;;;;;3.10;2.55;;;;;;;28.62;59.92;101147.09;5068450;28;20512;-59
2023/07/14 09:10:47;;;;;;;5.13;3.92;;;;;;;28.62;60.30;101145.22;5060318;28;20043;-59
2023/07/14 09:13:48;;;;;;;4.25;3.25;;;;;;;28.62;60.89;101153.38;5059143;28;20056;-59
2023/07/14 09:16:20;;;;;;;4.80;2.90;;;;;;;28.63;61.87;101151.50;5054833;28;20079;-59
2023/07/14 09:18:51;;;;;;;4.30;3.00;;;;;;;28.63;61.88;101146.03;5063342;28;20052;-58
2023/07/14 09:21:44;;;;;;;5.45;2.88;;;;;;;28.62;61.73;101141.63;5056731;28;20064;-58
2023/07/14 09:24:20;;;;;;;6.07;3.53;;;;;;;28.62;62.32;101145.22;5058563;28;20408;-59
2023/07/14 09:26:54;;;;;;;5.22;3.35;;;;;;;28.62;62.14;101130.75;5069563;28;20055;-58
2023/07/14 09:29:36;;;;;;;4.90;3.70;;;;;;;28.61;62.19;101143.53;5060108;28;20045;-58
2023/07/14 09:32:22;;;;;;;4.43;3.13;;;;;;;28.61;62.60;101140.81;5068853;28;20064;-58
2023/07/14 09:34:58;;;;;;;5.53;3.80;;;;;;;28.61;62.69;101142.69;5070648;28;20052;-57
2023/07/14 09:37:48;;;;;;;5.45;3.78;;;;;;;28.61;62.43;101132.63;5072078;28;20056;-57
2023/07/14 09:40:25;;;;;;;5.72;3.13;;;;;;;28.62;61.48;101139.75;5053033;28;20052;-57
2023/07/14 09:42:56;;;;;;;4.88;3.58;;;;;;;28.64;61.08;101143.13;5061869;28;20103;-58
2023/07/14 09:45:25;;;;;;;4.88;3.05;;;;;;;28.66;61.35;101146.53;5071917;28;20036;-58
2023/07/14 09:48:07;;;;;;;5.05;3.67;;;;;;;28.66;61.74;101130.19;5064677;28;20072;-59
2023/07/14 09:50:40;;;;;;;4.07;3.58;;;;;;;28.66;62.25;101138.34;5062354;28;20424;-58
2023/07/14 09:53:08;;;;;;;4.00;3.22;;;;;;;28.67;62.55;101131.03;5071814;28;20053;-59
2023/07/14 09:56:03;;;;;;;3.70;3.13;;;;;;;28.67;62.55;101133.75;5062652;28;20040;-58
2023/07/14 09:58:33;;;;;;;6.63;3.80;;;;;;;28.67;62.01;101133.75;5061118;28;20056;-57
2023/07/14 10:01:06;;;;;;;5.90;4.10;;;;;;;28.66;61.99;101142.97;5071348;28;20051;-57
2023/07/14 10:03:48;;;;;;;5.38;3.70;;;;;;;28.65;62.15;101135.81;5063528;28;20385;-57
2023/07/14 10:06:22;;;;;;;6.63;3.60;;;;;;;28.65;62.58;101141.28;5062096;28;20052;-58
2023/07/14 10:08:54;;;;;;;4.85;3.78;;;;;;;28.65;62.54;101135.81;5070344;28;20052;-59
2023/07/14 10:11:25;;;;;;;;;;;;;;;28.65;62.30;101131.22;5063571;28;20044;-59
2023/07/14 10:14:06;;;;;;;5.18;3.63;;;;;;;28.66;61.95;101129.34;5063401;28;19921;-58
2023/07/14 10:16:42;;;;;;;4.95;4.07;;;;;;;28.67;62.22;101129.13;5059122;28;20055;-58
2023/07/14 10:19:17;;;;;;;4.90;4.38;;;;;;;28.67;62.22;101134.59;5069082;28;20049;-58
2023/07/14 10:21:55;;;;;;;5.45;3.85;;;;;;;28.67;61.73;101134.59;5067566;28;20052;-58
2023/07/14 10:24:24;;;;;;;5.43;4.35;;;;;;;28.68;62.31;101132.72;5059727;28;20040;-57
2023/07/14 10:26:57;;;;;;;6.47;4.65;;;;;;;28.68;62.46;101130.81;5070201;28;20049;-58
2023/07/14 10:29:27;;;;;;;5.93;4.38;;;;;;;28.68;62.03;101129.97;5065567;28;20047;-58
2023/07/14 10:32:05;;;;;;;5.88;4.40;;;;;;;28.69;61.73;101126.25;5061229;28;20056;-58
2023/07/14 10:34:49;;;;;;;7.07;4.93;;;;;;;28.69;62.00;101127.09;5070931;28;20416;-58
2023/07/14 10:37:30;;;;;;;6.95;4.97;;;;;;;28.69;61.89;101127.09;5065578;28;20049;-59
2023/07/14 10:40:14;;;;;;;6.43;5.10;;;;;;;28.70;61.77;101106.13;5060295;28;20037;-59
2023/07/14 10:43:21;;;;;;;6.50;4.63;;;;;;;28.70;61.61;101109.69;5056655;28;20049;-59
2023/07/14 10:45:54;;;;;;;5.85;4.80;;;;;;;28.71;61.57;101107.81;5070148;28;20064;-59
2023/07/14 10:48:36;;;;;;;7.15;5.00;;;;;;;28.71;61.42;101103.22;5059785;28;20507;-58
2023/07/14 10:51:26;;;;;;;5.50;4.77;;;;;;;28.73;60.93;101105.78;5064937;28;20037;-58
2023/07/14 10:54:16;;;;;;;7.57;5.60;;;;;;;28.75;60.89;101099.09;5071802;28;20281;-58
2023/07/14 10:56:48;;;;;;;6.40;5.22;;;;;;;28.78;60.34;101103.31;5063707;28;20048;-58
2023/07/14 10:59:24;;;;;;;5.82;5.20;;;;;;;28.79;59.78;101097.66;5061787;28;20048;-59
2023/07/14 11:02:05;;;;;;;9.43;6.18;;;;;;;28.80;60.05;101093.06;5058686;28;20045;-59
2023/07/14 11:04:38;;;;;;;7.17;5.20;;;;;;;28.79;59.74;101092.22;5066993;28;20052;-59
2023/07/14 11:07:14;;;;;;;7.32;5.88;;;;;;;28.79;60.28;101081.31;5065931;28;20049;-59
2023/07/14 11:09:41;;;;;;;6.03;4.85;;;;;;;28.80;59.91;101084.88;5058341;28;20052;-61
2023/07/14 11:12:34;;;;;;;6.40;4.70;;;;;;;28.81;59.35;101075.69;5067847;28;20045;-61
2023/07/14 11:15:22;;;;;;;9.95;4.80;;;;;;;28.83;59.33;101073.63;5068056;28;20048;-61
2023/07/14 11:17:58;;;;;;;6.78;5.13;;;;;;;28.84;59.70;101075.31;5058927;28;20048;-60
2023/07/14 11:20:37;;;;;;;6.15;5.20;;;;;;;28.85;59.40;101079.75;5065408;28;20068;-61
2023/07/14 11:23:35;;;;;;;6.50;5.18;;;;;;;28.87;59.49;101072.19;5068914;28;20044;-61
2023/07/14 11:26:05;;;;;;;9.88;5.82;;;;;;;28.88;59.45;101068.44;5056009;28;20051;-60
2023/07/14 11:28:51;;;;;;;8.98;5.97;;;;;;;28.90;58.90;101073.72;5064764;28;20047;-61
2023/07/14 11:31:26;;;;;;;8.07;5.57;;;;;;;28.91;58.64;101070.78;5058013;28;20044;-61
2023/07/14 11:34:11;;;;;;;10.27;6.78;;;;;;;28.92;58.93;101061.56;5067531;28;20048;-61
2023/07/14 11:36:51;;;;;;;8.30;5.80;;;;;;;28.94;58.77;101058.69;5067104;28;20048;-61
2023/07/14 11:39:44;;;;;;;8.18;5.78;;;;;;;28.95;58.62;101061.19;5069358;28;20068;-61
2023/07/14 11:42:36;;;;;;;6.75;4.88;;;;;;;28.97;58.73;101047.44;5064129;28;20056;-58
2023/07/14 11:45:17;;;;;;;7.20;4.65;;;;;;;28.97;59.13;101052.88;5056424;28;20057;-59
2023/07/14 11:47:44;;;;;;;7.75;5.85;;;;;;;28.96;58.79;101043.81;5066638;28;20063;-58